Time;durP1;ratioP1;P1;durP2;ratioP2;P2;SDS_P1;SDS_P2;PMS_P1;PMS_P2;Temp;Humidity;BMP_temperature;BMP_pressure;BME280_temperature;BME280_humidity;BME280_pressure;Samples;Min_cycle;Max_cycle;Signal;HPM_P1;HPM_P2
2023/12/14 00:02:45;;;;;;;0.20;0.20;;;;;;;4.60;87.52;100101.22;15699797;22;20131;-50
2023/12/14 00:10:22;;;;;;;0.00;0.00;;;;;;;4.52;87.73;100100.50;15713192;28;20331;-48
2023/12/14 00:17:56;;;;;;;0.30;0.30;;;;;;;4.46;87.63;100114.53;15663096;28;20397;-45
2023/12/14 00:25:31;;;;;;;;;;;;;;;4.35;88.56;100127.28;15670227;28;20041;-47
2023/12/14 00:33:04;;;;;;;0.93;0.90;;;;;;;4.66;86.91;100141.34;15658811;28;19927;-46
2023/12/14 00:40:39;;;;;;;0.00;0.00;;;;;;;4.54;87.92;100144.50;15663931;28;20076;-49
2023/12/14 00:48:12;;;;;;;0.05;0.05;;;;;;;4.56;87.65;100158.41;15673030;28;20049;-45
2023/12/14 00:55:47;;;;;;;0.20;0.20;;;;;;;4.25;88.18;100171.91;15669406;28;20474;-48
2023/12/14 01:03:21;;;;;;;0.20;0.20;;;;;;;4.50;87.47;100193.72;15678148;28;20047;-46
2023/12/14 01:10:56;;;;;;;0.30;0.30;;;;;;;4.33;87.41;100205.50;15674100;28;20038;-51
2023/12/14 01:18:29;;;;;;;0.13;0.13;;;;;;;4.39;87.48;100202.16;15675714;28;20126;-48
2023/12/14 01:26:04;;;;;;;;;;;;;;;4.60;87.80;100226.13;15663329;28;20073;-47
2023/12/14 01:33:38;;;;;;;0.15;0.15;;;;;;;4.39;87.53;100233.22;15665124;28;19925;-52
2023/12/14 01:41:13;;;;;;;1.65;0.52;;;;;;;4.02;88.67;100246.34;15672232;28;20072;-47
2023/12/14 01:48:46;;;;;;;0.45;0.45;;;;;;;3.76;89.60;100253.84;15676609;28;20132;-46
2023/12/14 01:56:21;;;;;;;0.00;0.00;;;;;;;4.13;88.27;100250.38;15662026;28;20053;-45
2023/12/14 02:03:54;;;;;;;7.25;2.08;;;;;;;4.40;87.09;100256.13;15666776;28;20467;-45
2023/12/14 02:11:30;;;;;;;0.32;0.32;;;;;;;4.29;87.51;100265.34;15665058;28;20478;-46
2023/12/14 02:19:06;;;;;;;0.52;0.52;;;;;;;3.96;87.74;100273.59;15671529;28;20045;-46
2023/12/14 02:26:41;;;;;;;0.20;0.20;;;;;;;3.79;87.76;100278.22;15665839;28;20132;-49
2023/12/14 02:34:15;;;;;;;0.20;0.20;;;;;;;3.91;87.22;100286.56;15663197;28;20477;-45
2023/12/14 02:41:50;;;;;;;2.17;1.05;;;;;;;4.14;86.38;100288.38;15671600;28;20052;-45
2023/12/14 02:49:25;;;;;;;0.10;0.10;;;;;;;3.95;86.41;100295.03;15667144;28;20091;-47
2023/12/14 02:56:59;;;;;;;0.20;0.20;;;;;;;3.94;86.62;100309.31;15671584;28;20044;-48
2023/12/14 03:04:35;;;;;;;0.25;0.25;;;;;;;4.25;84.49;100326.00;15669883;28;20103;-45
2023/12/14 03:12:10;;;;;;;0.10;0.10;;;;;;;4.20;84.95;100315.09;15660943;28;20080;-45
2023/12/14 03:19:44;;;;;;;7.00;1.25;;;;;;;4.05;85.24;100338.09;15646642;28;20044;-45
2023/12/14 03:27:19;;;;;;;;;;;;;;;4.06;84.79;100351.22;15669971;28;20444;-48
2023/12/14 03:34:54;;;;;;;0.10;0.10;;;;;;;3.78;85.80;100355.38;15660976;28;19921;-46
2023/12/14 03:42:28;;;;;;;0.05;0.05;;;;;;;4.02;84.96;100373.81;15658750;28;20037;-45
2023/12/14 03:50:01;;;;;;;0.52;0.50;;;;;;;4.09;84.49;100379.22;15662889;28;20041;-48
2023/12/14 03:57:37;;;;;;;0.00;0.00;;;;;;;4.07;85.19;100405.97;15662810;28;20037;-46
2023/12/14 04:05:14;;;;;;;0.03;0.03;;;;;;;3.73;86.15;100409.00;15666914;28;20063;-46
2023/12/14 04:12:50;;;;;;;0.00;0.00;;;;;;;4.11;84.83;100409.09;15667683;28;20041;-47
2023/12/14 04:20:26;;;;;;;0.80;0.80;;;;;;;3.95;85.39;100420.66;15662992;28;20068;-45
2023/12/14 04:28:01;;;;;;;0.00;0.00;;;;;;;3.16;86.28;100397.78;15664585;28;20096;-45
2023/12/14 04:35:36;;;;;;;1.02;0.40;;;;;;;3.82;85.57;100436.31;15667754;28;20033;-46
2023/12/14 04:43:12;;;;;;;0.43;0.43;;;;;;;3.54;86.47;100446.56;15651916;28;20055;-45
2023/12/14 04:50:46;;;;;;;1.35;1.27;;;;;;;3.82;86.07;100439.81;15655958;28;20401;-49
2023/12/14 04:58:20;;;;;;;0.00;0.00;;;;;;;3.80;85.03;100465.69;15660680;28;20586;-45
2023/12/14 05:05:54;;;;;;;0.30;0.30;;;;;;;3.37;85.21;100387.44;15656545;28;20517;-46
2023/12/14 05:13:28;;;;;;;0.00;0.00;;;;;;;3.92;85.12;100486.56;15659514;28;20049;-47
2023/12/14 05:21:03;;;;;;;0.03;0.03;;;;;;;4.13;83.86;100497.41;15662589;28;20426;-46
2023/12/14 05:28:38;;;;;;;0.00;0.00;;;;;;;3.94;84.73;100527.88;15654217;28;20033;-45
2023/12/14 05:36:12;;;;;;;0.43;0.43;;;;;;;3.26;86.08;100493.88;15667941;28;20073;-48
2023/12/14 05:43:47;;;;;;;3.92;1.35;;;;;;;4.02;84.85;100550.91;15675819;28;20481;-47
2023/12/14 05:51:29;;;;;;;0.35;0.35;;;;;;;4.04;84.46;100554.22;15677008;28;20037;-48
2023/12/14 05:59:06;;;;;;;0.38;0.35;;;;;;;3.47;86.47;100563.16;15667764;28;20053;-46
2023/12/14 06:06:39;;;;;;;0.65;0.65;;;;;;;3.98;84.64;100584.13;15676842;28;20071;-49
2023/12/14 06:14:14;;;;;;;0.00;0.00;;;;;;;4.20;85.43;100596.66;15670126;28;20131;-45
2023/12/14 06:21:48;;;;;;;0.17;0.17;;;;;;;3.95;85.27;100608.34;15647811;28;20383;-47
2023/12/14 06:29:23;;;;;;;0.47;0.47;;;;;;;4.01;84.57;100608.50;15669572;28;20047;-46
2023/12/14 06:36:58;;;;;;;0.00;0.00;;;;;;;4.26;83.88;100622.53;15675156;28;20095;-45
2023/12/14 06:44:33;;;;;;;0.00;0.00;;;;;;;4.24;83.48;100635.16;15665620;28;20068;-47
2023/12/14 06:52:07;;;;;;;0.63;0.63;;;;;;;4.11;84.09;100644.69;15658219;28;20047;-46
2023/12/14 06:59:42;;;;;;;1.65;0.45;;;;;;;4.16;84.18;100660.94;15675935;28;20095;-45
2023/12/14 07:07:17;;;;;;;0.70;0.70;;;;;;;4.21;82.95;100679.84;15674994;28;20052;-46
2023/12/14 07:14:51;;;;;;;1.38;1.27;;;;;;;4.76;81.99;100693.09;15676450;28;20044;-49
2023/12/14 07:22:24;;;;;;;0.03;0.03;;;;;;;4.87;81.45;100699.84;15678152;28;20065;-50
2023/12/14 07:29:59;;;;;;;0.10;0.10;;;;;;;4.64;81.67;100722.88;15677377;28;20045;-49
2023/12/14 07:37:34;;;;;;;0.15;0.15;;;;;;;4.95;80.92;100737.03;15678837;28;20036;-46
2023/12/14 07:45:10;;;;;;;0.00;0.00;;;;;;;4.98;80.74;100746.50;15674225;28;20076;-46
2023/12/14 07:52:43;;;;;;;0.00;0.00;;;;;;;4.74;81.57;100764.22;15671689;28;20040;-47
2023/12/14 08:00:18;;;;;;;;;;;;;;;4.74;80.93;100766.03;15672994;28;20131;-45
2023/12/14 08:07:57;;;;;;;0.93;0.55;;;;;;;5.01;80.76;100776.25;15671946;28;20015;-45
2023/12/14 08:15:31;;;;;;;0.43;0.43;;;;;;;4.89;80.36;100782.94;15671006;28;20068;-48
2023/12/14 08:23:05;;;;;;;0.03;0.03;;;;;;;4.27;82.49;100798.72;15671729;28;20110;-46
2023/12/14 08:30:40;;;;;;;1.45;0.50;;;;;;;4.32;80.21;100754.69;15671710;28;20106;-48
2023/12/14 08:38:13;;;;;;;3.25;0.77;;;;;;;4.64;80.32;100815.94;15672401;28;20041;-50
2023/12/14 08:45:48;;;;;;;0.10;0.10;;;;;;;4.61;81.14;100838.34;15669273;28;20208;-48
2023/12/14 08:53:22;;;;;;;0.15;0.15;;;;;;;4.79;80.56;100854.09;15668006;28;20048;-46
2023/12/14 09:00:56;;;;;;;;;;;;;;;4.94;79.82;100870.19;15679060;28;20056;-52
2023/12/14 09:08:30;;;;;;;0.63;0.63;;;;;;;4.94;80.04;100884.31;15682885;28;20433;-48
2023/12/14 09:16:06;;;;;;;0.00;0.00;;;;;;;5.03;80.07;100885.13;15682864;28;20103;-52
2023/12/14 09:23:40;;;;;;;0.30;0.25;;;;;;;5.15;79.78;100896.25;15680219;28;20069;-51
2023/12/14 09:31:16;;;;;;;0.22;0.15;;;;;;;5.01;79.33;100914.56;15680669;28;20045;-45
2023/12/14 09:38:51;;;;;;;0.00;0.00;;;;;;;4.81;81.08;100923.94;15678510;28;20492;-47
2023/12/14 09:46:29;;;;;;;0.70;0.35;;;;;;;5.10;79.55;100934.84;15677710;28;20045;-47
2023/12/14 09:54:04;;;;;;;0.52;0.52;;;;;;;5.16;79.12;100943.13;15657944;28;20053;-47
2023/12/14 10:01:42;;;;;;;0.25;0.20;;;;;;;4.70;80.53;100938.38;15663604;28;20091;-47
2023/12/14 10:09:24;;;;;;;0.00;0.00;;;;;;;4.23;83.00;100954.97;15679769;28;20033;-47
2023/12/14 10:17:16;;;;;;;0.00;0.00;;;;;;;3.87;84.04;100956.19;15682719;28;20044;-47
2023/12/14 10:24:50;;;;;;;0.55;0.55;;;;;;;4.24;82.56;100958.44;15680165;28;20413;-46
2023/12/14 10:32:25;;;;;;;1.33;1.20;;;;;;;4.07;83.26;100971.69;15679906;28;20045;-47
2023/12/14 10:40:00;;;;;;;1.45;0.57;;;;;;;4.59;82.14;100992.72;15677527;28;20041;-47
2023/12/14 10:47:40;;;;;;;0.47;0.47;;;;;;;5.27;79.40;100999.50;15668350;28;20481;-50
2023/12/14 10:55:21;;;;;;;0.35;0.35;;;;;;;5.30;79.01;101004.47;15673814;28;20045;-46
2023/12/14 11:02:59;;;;;;;2.55;0.52;;;;;;;5.25;78.34;101011.31;15677825;28;20037;-48
2023/12/14 11:10:39;;;;;;;0.08;0.08;;;;;;;4.99;79.29;101022.13;15677629;28;20501;-48
2023/12/14 11:18:29;;;;;;;0.63;0.63;;;;;;;5.30;78.45;101014.28;15677906;28;20049;-48
2023/12/14 11:26:05;;;;;;;0.17;0.17;;;;;;;5.55;77.81;101023.06;15671881;28;20045;-48
2023/12/14 11:33:41;;;;;;;0.47;0.47;;;;;;;5.62;77.60;101030.19;15673685;28;20045;-48
2023/12/14 11:41:16;;;;;;;0.20;0.20;;;;;;;5.39;78.24;101045.22;15676782;28;20069;-45
2023/12/14 11:48:51;;;;;;;0.43;0.43;;;;;;;5.19;78.02;101054.56;15673907;28;20079;-49
2023/12/14 11:56:25;;;;;;;0.80;0.40;;;;;;;5.49;78.48;101061.00;15672577;28;20037;-53
2023/12/14 12:04:09;;;;;;;;;;;;;;;5.19;79.55;101083.84;15674496;28;20110;-49
2023/12/14 12:11:43;;;;;;;0.32;0.32;;;;;;;4.93;79.85;101090.13;15669156;28;20385;-47
2023/12/14 12:19:18;;;;;;;0.95;0.93;;;;;;;5.05;78.42;101093.31;15674015;28;20033;-45
2023/12/14 12:26:52;;;;;;;1.95;0.63;;;;;;;5.21;79.35;101103.13;15676057;28;20049;-51
2023/12/14 12:34:27;;;;;;;0.80;0.35;;;;;;;5.30;77.71;101104.78;15680783;28;20079;-48
2023/12/14 12:42:02;;;;;;;6.43;1.25;;;;;;;4.86;79.40;101115.75;15686220;28;20064;-46
2023/12/14 12:49:38;;;;;;;0.10;0.10;;;;;;;4.91;79.61;101121.41;15686279;28;20048;-48
2023/12/14 12:57:13;;;;;;;2.63;1.95;;;;;;;4.44;81.01;101129.91;15686715;28;20044;-47
2023/12/14 13:04:47;;;;;;;0.00;0.00;;;;;;;4.88;79.48;101144.81;15684401;28;20039;-46
2023/12/14 13:12:23;;;;;;;1.45;1.35;;;;;;;5.15;78.52;101151.69;15686745;28;20723;-45
2023/12/14 13:19:57;;;;;;;0.60;0.60;;;;;;;4.83;79.47;101150.63;15623595;28;20115;-47
2023/12/14 13:27:31;;;;;;;0.85;0.85;;;;;;;4.90;79.57;101156.97;15676837;28;20044;-45
2023/12/14 13:35:08;;;;;;;0.00;0.00;;;;;;;4.50;81.13;101173.63;15684844;28;20468;-47
2023/12/14 13:42:42;;;;;;;0.00;0.00;;;;;;;5.04;78.38;101187.44;15682278;28;20429;-47
2023/12/14 13:50:17;;;;;;;0.57;0.57;;;;;;;5.03;78.79;101201.72;15679203;28;20485;-46
2023/12/14 13:57:50;;;;;;;1.52;0.65;;;;;;;5.14;77.95;101228.03;15682332;28;20045;-48
2023/12/14 14:05:24;;;;;;;0.10;0.10;;;;;;;5.01;79.51;101241.78;15680694;28;20076;-47
2023/12/14 14:12:59;;;;;;;3.13;2.38;;;;;;;4.70;80.47;101260.09;15679011;28;20041;-46
2023/12/14 14:20:34;;;;;;;1.15;0.63;;;;;;;4.43;80.52;101270.94;15672084;28;20469;-46
2023/12/14 14:28:07;;;;;;;0.00;0.00;;;;;;;4.63;79.94;101287.50;15681631;28;20486;-46
2023/12/14 14:35:42;;;;;;;0.32;0.32;;;;;;;4.63;79.85;101308.78;15681220;28;20049;-46
2023/12/14 14:43:18;;;;;;;0.10;0.10;;;;;;;4.53;80.06;101307.06;15681267;28;20045;-50
2023/12/14 14:50:54;;;;;;;0.00;0.00;;;;;;;4.21;81.97;101338.72;15678959;28;20083;-47
2023/12/14 14:58:28;;;;;;;2.25;1.30;;;;;;;4.91;78.98;101347.50;15679736;28;20437;-47
2023/12/14 15:06:03;;;;;;;;;;;;;;;4.32;80.94;101357.91;15677069;28;20049;-50
2023/12/14 15:13:36;;;;;;;0.17;0.17;;;;;;;4.74;79.94;101359.84;15677570;28;19927;-47
2023/12/14 15:21:16;;;;;;;0.85;0.82;;;;;;;4.29;81.05;101371.50;15677991;28;20060;-45
2023/12/14 15:28:49;;;;;;;2.08;0.82;;;;;;;4.57;80.21;101380.19;15676953;28;20071;-49
2023/12/14 15:36:26;;;;;;;0.38;0.38;;;;;;;4.75;77.77;101400.56;15675444;28;20667;-49
2023/12/14 15:44:00;;;;;;;0.35;0.35;;;;;;;4.61;79.45;101418.75;15675032;28;20053;-51
2023/12/14 15:51:36;;;;;;;0.35;0.35;;;;;;;4.60;78.69;101433.03;15668516;28;20049;-52
2023/12/14 15:59:09;;;;;;;0.20;0.20;;;;;;;4.99;77.29;101440.66;15672830;28;20128;-46
2023/12/14 16:06:44;;;;;;;0.98;0.68;;;;;;;5.23;77.06;101449.78;15661382;28;20045;-47
2023/12/14 16:14:18;;;;;;;1.38;0.93;;;;;;;5.27;76.39;101459.94;15661296;28;20524;-49
2023/12/14 16:21:52;;;;;;;;;;;;;;;4.66;79.44;101462.66;15650420;28;20102;-48
2023/12/14 16:29:27;;;;;;;0.70;0.70;;;;;;;4.82;78.05;101473.44;15674632;28;19960;-50
2023/12/14 16:37:03;;;;;;;0.05;0.05;;;;;;;4.54;78.93;101491.31;15669494;28;20037;-48
2023/12/14 16:44:37;;;;;;;0.40;0.40;;;;;;;4.44;78.62;101502.03;15649629;28;20045;-47
2023/12/14 16:52:14;;;;;;;0.25;0.25;;;;;;;3.94;81.20;101509.63;15673167;28;20040;-47
2023/12/14 16:59:48;;;;;;;0.15;0.15;;;;;;;4.11;80.41;101498.22;15672781;28;20040;-48
2023/12/14 17:07:23;;;;;;;0.73;0.60;;;;;;;5.04;76.64;101533.31;15671504;28;20095;-47
2023/12/14 17:14:56;;;;;;;0.82;0.65;;;;;;;4.95;76.55;101536.91;15672992;28;20049;-51
2023/12/14 17:22:33;;;;;;;0.20;0.20;;;;;;;4.91;77.15;101562.97;15681216;28;20490;-47
2023/12/14 17:30:10;;;;;;;2.65;1.00;;;;;;;5.18;76.41;101578.00;15680113;28;20409;-51
2023/12/14 17:37:44;;;;;;;1.73;0.52;;;;;;;5.16;77.11;101590.59;15674609;28;20033;-52
2023/12/14 17:45:17;;;;;;;0.10;0.10;;;;;;;5.24;76.24;101589.84;15681617;28;20045;-47
2023/12/14 17:52:53;;;;;;;0.22;0.22;;;;;;;5.15;76.03;101596.91;15642240;28;20502;-46
2023/12/14 18:00:26;;;;;;;0.85;0.85;;;;;;;5.23;76.29;101609.47;15688000;22;20391;-75
2023/12/14 18:08:06;;;;;;;0.47;0.47;;;;;;;4.78;78.53;101623.69;15765063;28;20418;-75
2023/12/14 18:15:40;;;;;;;0.43;0.40;;;;;;;4.83;78.09;101635.53;15746002;28;20063;-74
2023/12/14 18:23:15;;;;;;;0.08;0.08;;;;;;;5.04;77.59;101643.25;15726347;28;20068;-75
2023/12/14 18:30:49;;;;;;;0.30;0.30;;;;;;;5.16;77.27;101669.59;15736098;28;20124;-76
2023/12/14 18:38:24;;;;;;;0.90;0.70;;;;;;;5.02;77.54;101679.78;15735673;28;20090;-74
2023/12/14 18:45:59;;;;;;;0.25;0.25;;;;;;;4.93;77.83;101690.50;15728546;28;20064;-73
2023/12/14 18:53:34;;;;;;;0.00;0.00;;;;;;;5.15;76.47;101705.19;15725613;28;20584;-72
2023/12/14 19:01:07;;;;;;;1.05;0.95;;;;;;;5.25;76.30;101724.59;15726944;28;20639;-74
2023/12/14 19:08:42;;;;;;;0.70;0.70;;;;;;;4.75;77.28;101725.03;15730129;28;20070;-74
2023/12/14 19:16:23;;;;;;;0.25;0.25;;;;;;;4.93;77.46;101735.72;15718008;28;20098;-74
2023/12/14 19:23:57;;;;;;;3.05;0.73;;;;;;;4.38;79.37;101741.00;15734020;28;20514;-74
2023/12/14 19:31:30;;;;;;;0.10;0.10;;;;;;;4.74;78.03;101756.13;15734456;28;20410;-73
2023/12/14 19:39:05;;;;;;;0.22;0.22;;;;;;;4.71;77.46;101743.13;15735040;28;20079;-75
2023/12/14 19:46:39;;;;;;;0.00;0.00;;;;;;;4.93;76.83;101763.16;15676268;28;20052;-74
2023/12/14 19:54:14;;;;;;;1.42;1.33;;;;;;;4.91;76.99;101794.41;15736925;28;20594;-74
2023/12/14 20:01:47;;;;;;;0.32;0.32;;;;;;;4.72;76.54;101803.31;15707681;28;20577;-75
2023/12/14 20:09:23;;;;;;;0.52;0.52;;;;;;;4.56;76.48;101827.00;15709677;28;20052;-75
2023/12/14 20:16:57;;;;;;;0.10;0.10;;;;;;;4.86;75.57;101821.44;15729973;28;20044;-75
2023/12/14 20:24:31;;;;;;;0.00;0.00;;;;;;;4.88;75.16;101845.22;15727352;28;20044;-75
2023/12/14 20:32:05;;;;;;;4.10;2.38;;;;;;;4.91;74.94;101846.78;15737468;28;20053;-75
2023/12/14 20:39:41;;;;;;;0.25;0.25;;;;;;;4.99;74.99;101857.50;15740077;28;20041;-72
2023/12/14 20:47:15;;;;;;;1.15;1.02;;;;;;;4.20;77.59;101871.16;15735011;28;20119;-74
2023/12/14 20:54:51;;;;;;;1.45;0.77;;;;;;;4.27;78.53;101873.09;15751853;28;20079;-74
2023/12/14 21:02:25;;;;;;;0.93;0.90;;;;;;;4.42;76.40;101878.78;15751425;28;20100;-75
2023/12/14 21:10:00;;;;;;;0.25;0.25;;;;;;;4.15;78.25;101895.47;15748932;28;20048;-75
2023/12/14 21:17:33;;;;;;;1.08;1.02;;;;;;;4.66;76.86;101896.94;15743849;28;20060;-73
2023/12/14 21:25:08;;;;;;;;;;;;;;;4.44;78.19;101905.25;15744820;28;20048;-74
2023/12/14 21:32:45;;;;;;;0.28;0.28;;;;;;;4.15;78.44;101915.88;15748767;28;19924;-73
2023/12/14 21:40:22;;;;;;;0.25;0.25;;;;;;;4.49;77.61;101914.47;15735472;28;20537;-74
2023/12/14 21:47:57;;;;;;;0.80;0.80;;;;;;;4.33;77.47;101930.16;15748230;28;20536;-75
2023/12/14 21:55:31;;;;;;;3.28;1.90;;;;;;;4.47;78.36;101936.84;15743860;28;20462;-75
2023/12/14 22:03:06;;;;;;;0.08;0.08;;;;;;;4.45;77.95;101941.50;15782245;28;20048;-75
2023/12/14 22:10:41;;;;;;;0.63;0.43;;;;;;;4.49;78.00;101949.03;15759011;28;20047;-76
2023/12/14 22:18:14;;;;;;;0.95;0.90;;;;;;;4.69;76.70;101947.19;15754455;28;20043;-76
2023/12/14 22:25:49;;;;;;;0.03;0.03;;;;;;;4.38;77.34;101951.81;15723600;28;20110;-76
2023/12/14 22:33:22;;;;;;;0.65;0.45;;;;;;;3.44;81.24;101975.25;15734137;28;20047;-76
2023/12/14 22:40:57;;;;;;;4.88;1.02;;;;;;;3.36;82.18;101984.84;15733936;28;20048;-76
2023/12/14 22:48:30;;;;;;;0.68;0.65;;;;;;;3.57;81.65;101990.97;15734653;28;20075;-76
2023/12/14 22:56:06;;;;;;;0.85;0.85;;;;;;;3.74;81.30;102008.91;15744846;28;20119;-76
2023/12/14 23:03:42;;;;;;;0.75;0.75;;;;;;;3.58;81.64;102025.34;15737563;28;20044;-76
2023/12/14 23:11:18;;;;;;;0.10;0.10;;;;;;;3.41;81.76;102038.41;15750627;28;20040;-76
2023/12/14 23:18:51;;;;;;;0.10;0.10;;;;;;;3.99;80.89;102039.47;15782422;28;20044;-76
2023/12/14 23:26:26;;;;;;;0.17;0.17;;;;;;;3.57;80.48;102049.38;15788104;28;20131;-75
2023/12/14 23:33:59;;;;;;;0.45;0.30;;;;;;;3.94;80.13;102052.31;15781822;28;20119;-76
2023/12/14 23:41:35;;;;;;;0.13;0.13;;;;;;;3.91;80.20;102065.84;15786131;28;20048;-76
2023/12/14 23:49:12;;;;;;;0.03;0.03;;;;;;;3.67;80.50;102078.63;15746742;28;20531;-76
2023/12/14 23:56:47;;;;;;;;;;;;;;;4.13;79.30;102083.41;15754911;28;20052;-76
